createdAt,value
2023-11-24T00:00:08.090Z,8.71
2023-11-24T00:01:08.202Z,8.68
2023-11-24T00:02:08.161Z,8.63
2023-11-24T00:03:08.074Z,8.62
2023-11-24T00:04:08.073Z,8.63
2023-11-24T00:05:08.053Z,8.60
2023-11-24T00:06:08.045Z,8.60
2023-11-24T00:07:08.016Z,8.57
2023-11-24T00:08:08.028Z,8.55
2023-11-24T00:09:08.011Z,8.54
2023-11-24T00:10:08.000Z,8.53
2023-11-24T00:11:08.033Z,8.54
2023-11-24T00:12:07.970Z,8.54
2023-11-24T00:13:08.000Z,8.54
2023-11-24T00:14:07.942Z,8.54
2023-11-24T00:15:07.925Z,8.54
2023-11-24T00:16:08.012Z,8.47
2023-11-24T00:17:07.904Z,8.47
2023-11-24T00:18:07.915Z,8.45
2023-11-24T00:19:07.900Z,8.47
2023-11-24T00:20:07.887Z,8.48
2023-11-24T00:21:08.110Z,8.45
2023-11-24T00:22:07.861Z,8.48
2023-11-24T00:23:07.816Z,8.47
2023-11-24T00:24:07.829Z,8.48
2023-11-24T00:25:07.905Z,8.50
2023-11-24T00:26:07.828Z,8.50
2023-11-24T00:27:07.760Z,8.48
2023-11-24T00:28:07.775Z,8.48
2023-11-24T00:29:07.751Z,8.48
2023-11-24T00:30:07.793Z,8.50
2023-11-24T00:31:07.733Z,8.47
2023-11-24T00:32:07.767Z,8.45
2023-11-24T00:33:07.749Z,8.45
2023-11-24T00:34:07.855Z,8.45
2023-11-24T00:35:08.067Z,8.45
2023-11-24T00:36:07.722Z,8.42
2023-11-24T00:37:07.700Z,8.42
2023-11-24T00:38:07.677Z,8.36
2023-11-24T00:39:07.664Z,8.36
2023-11-24T00:40:07.667Z,8.33
2023-11-24T00:41:07.648Z,8.33
2023-11-24T00:42:07.624Z,8.33
2023-11-24T00:43:07.634Z,8.32
2023-11-24T00:44:07.581Z,8.28
2023-11-24T00:45:07.756Z,8.29
2023-11-24T00:46:09.528Z,8.26
2023-11-24T00:47:07.676Z,8.28
2023-11-24T00:48:07.575Z,8.26
2023-11-24T00:49:07.567Z,8.26
2023-11-24T00:50:07.570Z,8.26
2023-11-24T00:51:07.532Z,8.26
2023-11-24T00:52:07.510Z,8.26
2023-11-24T00:53:07.577Z,8.25
2023-11-24T00:54:07.458Z,8.22
2023-11-24T00:55:07.507Z,8.22
2023-11-24T00:56:07.462Z,8.18
2023-11-24T00:57:07.468Z,8.21
2023-11-24T00:58:07.443Z,8.18
2023-11-24T00:59:07.439Z,8.18
2023-11-24T01:00:09.381Z,8.20
2023-11-24T01:01:07.413Z,8.17
2023-11-24T01:02:07.411Z,8.15
2023-11-24T01:03:07.525Z,8.14
2023-11-24T01:04:07.425Z,8.17
2023-11-24T01:05:07.380Z,8.18
2023-11-24T01:06:07.371Z,8.14
2023-11-24T01:07:09.305Z,8.14
2023-11-24T01:08:09.303Z,8.11
2023-11-24T01:09:09.291Z,8.04
2023-11-24T01:10:09.241Z,8.03
2023-11-24T01:11:09.352Z,8.04
2023-11-24T01:12:08.213Z,8.02
2023-11-24T01:13:07.640Z,8.02
2023-11-24T01:14:09.232Z,8.03
2023-11-24T01:15:07.262Z,8.00
2023-11-24T01:16:07.281Z,7.99
2023-11-24T01:17:09.221Z,8.02
2023-11-24T01:18:09.160Z,8.02
2023-11-24T01:19:07.245Z,8.03
2023-11-24T01:20:07.289Z,8.03
2023-11-24T01:21:07.228Z,8.02
2023-11-24T01:22:09.132Z,8.00
2023-11-24T01:23:09.141Z,8.00
2023-11-24T01:24:09.092Z,7.97
2023-11-24T01:25:09.205Z,7.94
2023-11-24T01:26:07.147Z,7.94
2023-11-24T01:27:07.135Z,7.94
2023-11-24T01:28:07.126Z,7.96
2023-11-24T01:29:07.315Z,7.97
2023-11-24T01:30:07.069Z,7.96
2023-11-24T01:31:07.235Z,7.96
2023-11-24T01:32:07.047Z,7.94
2023-11-24T01:33:07.060Z,7.94
2023-11-24T01:34:07.131Z,7.94
2023-11-24T01:35:07.034Z,7.94
2023-11-24T01:36:07.045Z,7.94
2023-11-24T01:37:07.118Z,7.94
2023-11-24T01:38:06.993Z,7.94
2023-11-24T01:39:06.997Z,7.92
2023-11-24T01:40:07.071Z,7.93
2023-11-24T01:41:06.981Z,7.93
2023-11-24T01:42:06.957Z,7.90
2023-11-24T01:43:06.965Z,7.90
2023-11-24T01:44:06.900Z,7.90
2023-11-24T01:45:06.920Z,7.90
2023-11-24T01:46:06.997Z,7.89
2023-11-24T01:47:06.972Z,7.89
2023-11-24T01:48:06.915Z,7.84
2023-11-24T01:49:06.903Z,7.87
2023-11-24T01:50:06.856Z,7.87
2023-11-24T01:51:06.909Z,7.89
2023-11-24T01:52:06.816Z,7.89
2023-11-24T01:53:06.865Z,7.89
2023-11-24T01:54:06.795Z,7.89
2023-11-24T01:55:06.823Z,7.89
2023-11-24T01:56:07.747Z,7.87
2023-11-24T01:57:06.791Z,7.89
2023-11-24T01:58:06.921Z,7.87
2023-11-24T01:59:06.790Z,7.89
2023-11-24T02:00:06.789Z,7.85
2023-11-24T02:01:06.746Z,7.85
2023-11-24T02:02:06.788Z,7.85
2023-11-24T02:03:06.808Z,7.85
2023-11-24T02:04:06.829Z,7.84
2023-11-24T02:05:06.698Z,7.82
2023-11-24T02:06:06.679Z,7.84
2023-11-24T02:07:06.690Z,7.84
2023-11-24T02:08:06.685Z,7.82
2023-11-24T02:09:06.693Z,7.78
2023-11-24T02:10:06.730Z,7.75
2023-11-24T02:11:06.649Z,7.71
2023-11-24T02:12:06.598Z,7.72
2023-11-24T02:13:06.661Z,7.71
2023-11-24T02:14:07.362Z,7.66
2023-11-24T02:15:06.587Z,7.69
2023-11-24T02:16:06.671Z,7.67
2023-11-24T02:17:06.569Z,7.66
2023-11-24T02:18:06.595Z,7.66
2023-11-24T02:19:06.601Z,7.63
2023-11-24T02:20:06.515Z,7.63
2023-11-24T02:21:06.517Z,7.60
2023-11-24T02:22:06.483Z,7.56
2023-11-24T02:23:06.541Z,7.53
2023-11-24T02:24:06.482Z,7.55
2023-11-24T02:25:06.476Z,7.52
2023-11-24T02:26:06.460Z,7.55
2023-11-24T02:27:06.522Z,7.52
2023-11-24T02:28:06.517Z,7.50
2023-11-24T02:29:06.445Z,7.50
2023-11-24T02:30:06.412Z,7.53
2023-11-24T02:31:06.605Z,7.53
2023-11-24T02:32:06.396Z,7.55
2023-11-24T02:33:06.412Z,7.53
2023-11-24T02:34:06.488Z,7.53
2023-11-24T02:35:06.597Z,7.55
2023-11-24T02:36:06.343Z,7.56
2023-11-24T02:37:06.370Z,7.56
2023-11-24T02:38:06.345Z,7.58
2023-11-24T02:39:06.350Z,7.59
2023-11-24T02:40:06.345Z,7.62
2023-11-24T02:41:06.300Z,7.62
2023-11-24T02:42:06.296Z,7.63
2023-11-24T02:43:06.315Z,7.62
2023-11-24T02:44:06.294Z,7.62
2023-11-24T02:45:06.254Z,7.59
2023-11-24T02:46:06.242Z,7.59
2023-11-24T02:47:06.226Z,7.60
2023-11-24T02:48:06.293Z,7.59
2023-11-24T02:49:07.278Z,7.56
2023-11-24T02:50:06.217Z,7.53
2023-11-24T02:51:06.204Z,7.55
2023-11-24T02:52:06.190Z,7.53
2023-11-24T02:53:06.181Z,7.52
2023-11-24T02:54:06.133Z,7.55
2023-11-24T02:55:06.197Z,7.55
2023-11-24T02:56:06.128Z,7.52
2023-11-24T02:57:06.130Z,7.52
2023-11-24T02:58:06.096Z,7.53
2023-11-24T02:59:06.102Z,7.53
2023-11-24T03:00:06.109Z,7.53
2023-11-24T03:01:06.127Z,7.53
2023-11-24T03:02:06.137Z,7.55
2023-11-24T03:03:06.100Z,7.55
2023-11-24T03:04:06.139Z,7.56
2023-11-24T03:05:06.051Z,7.56
2023-11-24T03:06:06.791Z,7.53
2023-11-24T03:07:06.074Z,7.52
2023-11-24T03:08:05.984Z,7.50
2023-11-24T03:09:06.009Z,7.53
2023-11-24T03:10:06.006Z,7.52
2023-11-24T03:11:05.977Z,7.52
2023-11-24T03:12:05.931Z,7.52
2023-11-24T03:13:06.003Z,7.52
2023-11-24T03:14:05.924Z,7.52
2023-11-24T03:15:05.967Z,7.50
2023-11-24T03:16:05.926Z,7.49
2023-11-24T03:17:05.926Z,7.47
2023-11-24T03:18:05.904Z,7.45
2023-11-24T03:19:05.918Z,7.44
2023-11-24T03:20:05.852Z,7.44
2023-11-24T03:21:05.867Z,7.41
2023-11-24T03:22:05.941Z,7.40
2023-11-24T03:23:05.891Z,7.37
2023-11-24T03:24:05.805Z,7.38
2023-11-24T03:25:05.844Z,7.38
2023-11-24T03:26:05.831Z,7.38
2023-11-24T03:27:05.787Z,7.40
2023-11-24T03:28:05.909Z,7.38
2023-11-24T03:29:05.788Z,7.37
2023-11-24T03:30:05.833Z,7.35
2023-11-24T03:31:05.902Z,7.34
2023-11-24T03:32:05.716Z,7.34
2023-11-24T03:33:05.786Z,7.29
2023-11-24T03:34:05.789Z,7.29
2023-11-24T03:35:05.736Z,7.29
2023-11-24T03:36:05.692Z,7.27
2023-11-24T03:37:05.757Z,7.29
2023-11-24T03:38:05.646Z,7.31
2023-11-24T03:39:05.749Z,7.31
2023-11-24T03:40:05.668Z,7.29
2023-11-24T03:41:05.704Z,7.27
2023-11-24T03:42:05.618Z,7.24
2023-11-24T03:43:05.654Z,7.23
2023-11-24T03:44:05.606Z,7.23
2023-11-24T03:45:05.628Z,7.20
2023-11-24T03:46:05.585Z,7.19
2023-11-24T03:47:05.701Z,7.19
2023-11-24T03:48:05.605Z,7.19
2023-11-24T03:49:06.275Z,7.17
2023-11-24T03:50:05.522Z,7.17
2023-11-24T03:51:05.541Z,7.15
2023-11-24T03:52:05.552Z,7.15
2023-11-24T03:53:05.568Z,7.12
2023-11-24T03:54:05.483Z,7.07
2023-11-24T03:55:06.498Z,7.08
2023-11-24T03:56:05.453Z,7.07
2023-11-24T03:57:05.475Z,7.07
2023-11-24T03:58:06.431Z,7.05
2023-11-24T03:59:05.443Z,7.07
2023-11-24T04:00:05.417Z,7.05
2023-11-24T04:01:05.451Z,7.02
2023-11-24T04:02:05.437Z,7.01
2023-11-24T04:03:05.431Z,6.99
2023-11-24T04:04:05.434Z,6.99
2023-11-24T04:05:05.387Z,6.99
2023-11-24T04:06:05.325Z,6.98
2023-11-24T04:07:05.414Z,6.97
2023-11-24T04:08:05.342Z,6.97
2023-11-24T04:09:05.338Z,6.99
2023-11-24T04:10:05.376Z,7.01
2023-11-24T04:11:05.327Z,7.05
2023-11-24T04:12:05.303Z,7.04
2023-11-24T04:13:05.392Z,7.02
2023-11-24T04:14:05.257Z,6.98
2023-11-24T04:15:05.248Z,6.94
2023-11-24T04:16:05.291Z,6.90
2023-11-24T04:17:05.250Z,6.87
2023-11-24T04:18:05.493Z,6.80
2023-11-24T04:19:05.298Z,6.77
2023-11-24T04:20:05.170Z,6.73
2023-11-24T04:21:05.194Z,6.72
2023-11-24T04:22:05.211Z,6.66
2023-11-24T04:23:05.362Z,6.65
2023-11-24T04:24:05.158Z,6.66
2023-11-24T04:25:05.284Z,6.69
2023-11-24T04:26:05.136Z,6.71
2023-11-24T04:27:05.119Z,6.76
2023-11-24T04:28:05.173Z,6.79
2023-11-24T04:29:05.124Z,6.79
2023-11-24T04:30:05.096Z,6.80
2023-11-24T04:31:05.170Z,6.80
2023-11-24T04:32:05.056Z,6.79
2023-11-24T04:33:05.114Z,6.80
2023-11-24T04:34:05.232Z,6.81
2023-11-24T04:35:05.991Z,6.80
2023-11-24T04:36:05.016Z,6.80
2023-11-24T04:37:05.069Z,6.80
2023-11-24T04:38:04.993Z,6.80
2023-11-24T04:39:04.995Z,6.79
2023-11-24T04:40:05.031Z,6.79
2023-11-24T04:41:04.988Z,6.79
2023-11-24T04:42:04.930Z,6.80
2023-11-24T04:43:05.108Z,6.79
2023-11-24T04:44:04.930Z,6.80
2023-11-24T04:45:04.938Z,6.80
2023-11-24T04:46:05.013Z,6.80
2023-11-24T04:47:04.921Z,6.81
2023-11-24T04:48:04.920Z,6.81
2023-11-24T04:49:05.069Z,6.81
2023-11-24T04:50:04.842Z,6.83
2023-11-24T04:51:04.875Z,6.81
2023-11-24T04:52:04.869Z,6.84
2023-11-24T04:53:04.843Z,6.86
2023-11-24T04:54:04.799Z,6.84
2023-11-24T04:55:04.847Z,6.83
2023-11-24T04:56:04.794Z,6.80
2023-11-24T04:57:04.788Z,6.81
2023-11-24T04:58:04.803Z,6.83
2023-11-24T04:59:04.799Z,6.83
2023-11-24T05:00:04.791Z,6.84
2023-11-24T05:01:04.920Z,6.83
2023-11-24T05:02:05.881Z,6.86
2023-11-24T05:03:04.711Z,6.84
2023-11-24T05:04:04.802Z,6.84
2023-11-24T05:05:04.720Z,6.84
2023-11-24T05:06:04.720Z,6.81
2023-11-24T05:07:04.830Z,6.80
2023-11-24T05:08:04.676Z,6.79
2023-11-24T05:09:04.641Z,6.76
2023-11-24T05:10:04.726Z,6.72
2023-11-24T05:11:04.628Z,6.72
2023-11-24T05:12:04.643Z,6.71
2023-11-24T05:13:06.625Z,6.69
2023-11-24T05:14:04.660Z,6.69
2023-11-24T05:15:04.561Z,6.69
2023-11-24T05:16:04.622Z,6.71
2023-11-24T05:17:04.624Z,6.72
2023-11-24T05:18:05.510Z,6.71
2023-11-24T05:19:04.588Z,6.71
2023-11-24T05:20:04.558Z,6.71
2023-11-24T05:21:04.564Z,6.69
2023-11-24T05:22:04.546Z,6.69
2023-11-24T05:23:04.488Z,6.69
2023-11-24T05:24:05.431Z,6.68
2023-11-24T05:25:04.483Z,6.68
2023-11-24T05:26:04.477Z,6.68
2023-11-24T05:27:04.456Z,6.71
2023-11-24T05:28:04.509Z,6.69
2023-11-24T05:29:04.418Z,6.69
2023-11-24T05:30:04.424Z,6.69
2023-11-24T05:31:04.437Z,6.71
2023-11-24T05:32:04.452Z,6.72
2023-11-24T05:33:04.396Z,6.69
2023-11-24T05:34:04.420Z,6.69
2023-11-24T05:35:05.073Z,6.71
2023-11-24T05:36:04.378Z,6.69
2023-11-24T05:37:04.381Z,6.71
2023-11-24T05:38:04.341Z,6.68
2023-11-24T05:39:04.316Z,6.68
2023-11-24T05:40:04.342Z,6.66
2023-11-24T05:41:04.264Z,6.68
2023-11-24T05:42:04.309Z,6.68
2023-11-24T05:43:04.336Z,6.68
2023-11-24T05:44:04.261Z,6.65
2023-11-24T05:45:04.266Z,6.66
2023-11-24T05:46:04.305Z,6.65
2023-11-24T05:47:04.305Z,6.68
2023-11-24T05:48:04.280Z,6.65
2023-11-24T05:49:04.242Z,6.65
2023-11-24T05:50:04.200Z,6.65
2023-11-24T05:51:04.181Z,6.65
2023-11-24T05:52:04.386Z,6.65
2023-11-24T05:53:04.227Z,6.63
2023-11-24T05:54:04.153Z,6.63
2023-11-24T05:55:04.176Z,6.63
2023-11-24T05:56:04.205Z,6.65
2023-11-24T05:57:04.128Z,6.63
2023-11-24T05:58:04.200Z,6.62
2023-11-24T05:59:04.170Z,6.62
2023-11-24T06:00:04.158Z,6.62
2023-11-24T06:01:04.185Z,6.63
2023-11-24T06:02:04.183Z,6.66
2023-11-24T06:03:04.078Z,6.68
2023-11-24T06:04:04.209Z,6.66
2023-11-24T06:05:04.336Z,6.65
2023-11-24T06:06:04.052Z,6.65
2023-11-24T06:07:05.034Z,6.68
2023-11-24T06:08:04.005Z,6.66
2023-11-24T06:09:03.975Z,6.66
2023-11-24T06:10:04.112Z,6.66
2023-11-24T06:11:04.665Z,6.66
2023-11-24T06:12:04.043Z,6.65
2023-11-24T06:13:04.014Z,6.63
2023-11-24T06:14:03.928Z,6.66
2023-11-24T06:15:03.990Z,6.63
2023-11-24T06:16:03.955Z,6.65
2023-11-24T06:17:04.006Z,6.65
2023-11-24T06:18:03.974Z,6.65
2023-11-24T06:19:03.886Z,6.68
2023-11-24T06:20:03.922Z,6.65
2023-11-24T06:21:03.841Z,6.68
2023-11-24T06:22:03.998Z,6.68
2023-11-24T06:23:03.822Z,6.69
2023-11-24T06:24:03.831Z,6.72
2023-11-24T06:25:03.867Z,6.71
2023-11-24T06:26:03.809Z,6.71
2023-11-24T06:27:03.828Z,6.68
2023-11-24T06:28:03.876Z,6.68
2023-11-24T06:29:03.739Z,6.66
2023-11-24T06:30:03.758Z,6.66
2023-11-24T06:31:03.879Z,6.66
2023-11-24T06:32:03.757Z,6.66
2023-11-24T06:33:03.760Z,6.68
2023-11-24T06:34:03.787Z,6.69
2023-11-24T06:35:03.668Z,6.69
2023-11-24T06:36:03.708Z,6.72
2023-11-24T06:37:03.679Z,6.71
2023-11-24T06:38:03.704Z,6.76
2023-11-24T06:39:03.668Z,6.76
2023-11-24T06:40:03.724Z,6.76
2023-11-24T06:41:03.620Z,6.77
2023-11-24T06:42:03.648Z,6.73
2023-11-24T06:43:03.602Z,6.76
2023-11-24T06:44:03.605Z,6.73
2023-11-24T06:45:03.571Z,6.73
2023-11-24T06:46:03.675Z,6.72
2023-11-24T06:47:03.634Z,6.76
2023-11-24T06:48:03.581Z,6.79
2023-11-24T06:49:03.628Z,6.79
2023-11-24T06:50:03.561Z,6.79
2023-11-24T06:51:03.494Z,6.79
2023-11-24T06:52:03.601Z,6.80
2023-11-24T06:53:03.487Z,6.79
2023-11-24T06:54:03.496Z,6.77
2023-11-24T06:55:03.596Z,6.76
2023-11-24T06:56:03.487Z,6.77
2023-11-24T06:58:03.534Z,6.76
2023-11-24T06:59:03.728Z,6.73
2023-11-24T07:00:03.451Z,6.73
2023-11-24T07:01:03.478Z,6.73
2023-11-24T07:02:03.556Z,6.73
2023-11-24T07:03:03.461Z,6.73
2023-11-24T07:04:03.538Z,6.73
2023-11-24T07:05:03.376Z,6.77
2023-11-24T07:06:03.357Z,6.79
2023-11-24T07:07:03.378Z,6.73
2023-11-24T07:08:03.338Z,6.71
2023-11-24T07:09:03.318Z,6.69
2023-11-24T07:10:03.504Z,6.68
2023-11-24T07:11:03.324Z,6.69
2023-11-24T07:12:03.311Z,6.68
2023-11-24T07:13:03.360Z,6.61
2023-11-24T07:14:03.276Z,6.56
2023-11-24T07:15:03.262Z,6.56
2023-11-24T07:16:03.300Z,6.53
2023-11-24T07:17:03.247Z,6.53
2023-11-24T07:18:03.288Z,6.50
2023-11-24T07:19:03.289Z,6.50
2023-11-24T07:20:03.229Z,6.50
2023-11-24T07:21:03.191Z,6.48
2023-11-24T07:22:03.223Z,6.51
2023-11-24T07:23:03.150Z,6.51
2023-11-24T07:24:03.215Z,6.53
2023-11-24T07:25:03.184Z,6.54
2023-11-24T07:26:03.135Z,6.56
2023-11-24T07:27:03.095Z,6.54
2023-11-24T07:28:03.186Z,6.56
2023-11-24T07:29:03.082Z,6.58
2023-11-24T07:30:03.112Z,6.56
2023-11-24T07:31:03.084Z,6.54
2023-11-24T07:32:05.069Z,6.50
2023-11-24T07:33:03.300Z,6.47
2023-11-24T07:34:03.130Z,6.47
2023-11-24T07:35:03.072Z,6.46
2023-11-24T07:36:03.023Z,6.47
2023-11-24T07:37:03.071Z,6.47
2023-11-24T07:38:03.012Z,6.50
2023-11-24T07:39:02.977Z,6.50
2023-11-24T07:40:03.060Z,6.47
2023-11-24T07:41:02.988Z,6.46
2023-11-24T07:42:02.988Z,6.47
2023-11-24T07:43:02.951Z,6.47
2023-11-24T07:44:02.949Z,6.51
2023-11-24T07:45:02.921Z,6.53
2023-11-24T07:46:03.055Z,6.54
2023-11-24T07:47:02.933Z,6.54
2023-11-24T07:48:02.941Z,6.54
2023-11-24T07:49:02.897Z,6.54
2023-11-24T07:50:02.895Z,6.53
2023-11-24T07:51:02.848Z,6.54
2023-11-24T07:52:02.999Z,6.47
2023-11-24T07:53:02.856Z,6.40
2023-11-24T07:54:02.849Z,6.41
2023-11-24T07:55:02.834Z,6.32
2023-11-24T07:56:02.851Z,6.13
2023-11-24T07:57:02.810Z,6.00
2023-11-24T07:58:02.840Z,5.89
2023-11-24T07:59:02.762Z,5.82
2023-11-24T08:00:02.808Z,5.74
2023-11-24T08:01:06.146Z,5.73
2023-11-24T08:02:02.824Z,5.73
2023-11-24T08:03:02.731Z,5.71
2023-11-24T08:04:02.941Z,5.68
2023-11-24T08:05:02.678Z,5.66
2023-11-24T08:06:02.708Z,5.60
2023-11-24T08:07:02.683Z,5.60
2023-11-24T08:08:02.693Z,5.64
2023-11-24T08:09:02.670Z,5.67
2023-11-24T08:10:02.746Z,5.70
2023-11-24T08:11:02.618Z,5.70
2023-11-24T08:12:02.633Z,5.67
2023-11-24T08:13:02.642Z,5.66
2023-11-24T08:14:02.638Z,5.63
2023-11-24T08:15:02.578Z,5.60
2023-11-24T08:16:02.683Z,5.60
2023-11-24T08:17:02.616Z,5.59
2023-11-24T08:18:02.684Z,5.60
2023-11-24T08:19:02.618Z,5.64
2023-11-24T08:20:02.574Z,5.67
2023-11-24T08:21:02.525Z,5.68
2023-11-24T08:22:02.552Z,5.73
2023-11-24T08:23:02.533Z,5.77
2023-11-24T08:24:02.519Z,5.82
2023-11-24T08:25:02.530Z,5.82
2023-11-24T08:26:02.503Z,5.86
2023-11-24T08:27:02.493Z,5.88
2023-11-24T08:28:02.509Z,5.91
2023-11-24T08:29:02.426Z,5.93
2023-11-24T08:30:02.468Z,5.96
2023-11-24T08:31:02.450Z,6.01
2023-11-24T08:32:02.452Z,6.04
2023-11-24T08:33:02.445Z,6.06
2023-11-24T08:34:02.435Z,6.07
2023-11-24T08:35:02.444Z,6.07
2023-11-24T08:36:02.374Z,6.10
2023-11-24T08:37:02.390Z,6.11
2023-11-24T08:38:02.339Z,6.16
2023-11-24T08:39:02.358Z,6.21
2023-11-24T08:40:02.369Z,6.26
2023-11-24T08:41:02.299Z,6.30
2023-11-24T08:42:02.340Z,6.33
2023-11-24T08:43:02.341Z,6.35
2023-11-24T08:44:02.328Z,6.40
2023-11-24T08:45:02.241Z,6.43
2023-11-24T08:46:02.401Z,6.41
2023-11-24T08:47:02.307Z,6.41
2023-11-24T08:48:02.309Z,6.43
2023-11-24T08:49:02.308Z,6.40
2023-11-24T08:50:02.241Z,6.40
2023-11-24T08:51:02.202Z,6.40
2023-11-24T08:52:02.223Z,6.40
2023-11-24T08:53:02.173Z,6.32
2023-11-24T08:54:02.199Z,6.30
2023-11-24T08:55:02.218Z,6.28
2023-11-24T08:56:02.175Z,6.21
2023-11-24T08:57:02.113Z,6.21
2023-11-24T08:58:02.292Z,6.16
2023-11-24T08:59:02.129Z,6.14
2023-11-24T09:00:02.126Z,6.16
2023-11-24T09:01:02.159Z,6.13
2023-11-24T09:02:02.205Z,6.11
2023-11-24T09:03:02.115Z,6.11
2023-11-24T09:04:02.162Z,6.07
2023-11-24T09:05:02.238Z,6.09
2023-11-24T09:06:02.195Z,6.06
2023-11-24T09:07:02.037Z,6.03
2023-11-24T09:08:02.034Z,6.00
2023-11-24T09:09:02.006Z,6.00
2023-11-24T09:10:02.038Z,5.98
2023-11-24T09:11:01.962Z,5.96
2023-11-24T09:12:01.991Z,5.95
2023-11-24T09:13:02.032Z,5.98
2023-11-24T09:14:01.947Z,6.03
2023-11-24T09:15:01.959Z,6.10
2023-11-24T09:16:01.984Z,6.16
2023-11-24T09:17:01.954Z,6.18
2023-11-24T09:18:01.950Z,6.21
2023-11-24T09:19:01.948Z,6.21
2023-11-24T09:20:01.950Z,6.25
2023-11-24T09:21:01.927Z,6.28
2023-11-24T09:22:01.899Z,6.29
2023-11-24T09:23:01.869Z,6.32
2023-11-24T09:24:01.846Z,6.33
2023-11-24T09:25:01.872Z,6.35
2023-11-24T09:26:01.823Z,6.29
2023-11-24T09:27:01.826Z,6.28
2023-11-24T09:28:01.841Z,6.25
2023-11-24T09:29:01.811Z,6.22
2023-11-24T09:30:01.849Z,6.22
2023-11-24T09:31:01.829Z,6.22
2023-11-24T09:32:01.749Z,6.19
2023-11-24T09:33:01.786Z,6.19
2023-11-24T09:34:01.808Z,6.18
2023-11-24T09:35:01.770Z,6.14
2023-11-24T09:36:01.735Z,6.10
2023-11-24T09:37:01.735Z,6.07
2023-11-24T09:38:01.723Z,6.01
2023-11-24T09:39:01.728Z,5.96
2023-11-24T09:40:01.666Z,5.64
2023-11-24T09:41:01.649Z,5.37
2023-11-24T09:42:01.629Z,5.19
2023-11-24T09:43:01.670Z,5.02
2023-11-24T09:44:01.674Z,4.91
2023-11-24T09:45:01.608Z,4.84
2023-11-24T09:46:01.671Z,4.67
2023-11-24T09:47:01.643Z,4.59
2023-11-24T09:48:01.625Z,4.54
2023-11-24T09:49:01.600Z,4.39
2023-11-24T09:50:01.532Z,4.36
2023-11-24T09:51:01.590Z,4.25
2023-11-24T09:52:01.601Z,4.15
2023-11-24T09:53:02.833Z,4.01
2023-11-24T09:54:02.983Z,4.01
2023-11-24T09:55:01.532Z,4.06
2023-11-24T09:56:02.255Z,4.10
2023-11-24T09:57:01.495Z,4.16
2023-11-24T09:58:03.443Z,4.28
2023-11-24T09:59:01.464Z,4.36
2023-11-24T10:00:01.441Z,4.46
2023-11-24T10:01:01.435Z,4.57
2023-11-24T10:02:05.089Z,4.65
2023-11-24T10:03:02.076Z,4.75
2023-11-24T10:04:01.402Z,4.84
2023-11-24T10:05:01.441Z,4.92
2023-11-24T10:06:01.400Z,4.99
2023-11-24T10:07:01.398Z,5.04
2023-11-24T10:08:01.335Z,5.09
2023-11-24T10:09:01.377Z,5.16
2023-11-24T10:10:01.379Z,5.23
2023-11-24T10:11:01.368Z,5.27
2023-11-24T10:12:01.281Z,5.31
2023-11-24T10:13:01.660Z,5.38
2023-11-24T10:14:01.298Z,5.52
2023-11-24T10:15:01.305Z,5.64
2023-11-24T10:16:02.783Z,5.73
2023-11-24T10:17:01.294Z,5.82
2023-11-24T10:18:01.508Z,5.88
2023-11-24T10:19:01.452Z,5.92
2023-11-24T10:20:01.195Z,5.98
2023-11-24T10:21:01.265Z,6.09
2023-11-24T10:22:01.230Z,6.11
2023-11-24T10:23:01.361Z,6.16
2023-11-24T10:24:01.143Z,6.21
2023-11-24T10:25:01.204Z,6.29
2023-11-24T10:26:01.155Z,6.30
2023-11-24T10:27:01.161Z,6.32
2023-11-24T10:28:01.195Z,6.38
2023-11-24T10:29:01.115Z,6.41
2023-11-24T10:30:01.109Z,6.35
2023-11-24T10:31:01.137Z,6.35
2023-11-24T10:32:01.131Z,6.33
2023-11-24T10:33:01.096Z,6.36
2023-11-24T10:34:01.126Z,6.33
2023-11-24T10:35:01.188Z,6.26
2023-11-24T10:36:01.006Z,6.29
2023-11-24T10:37:01.210Z,6.22
2023-11-24T10:38:00.997Z,6.26
2023-11-24T10:39:01.007Z,6.25
2023-11-24T10:40:01.016Z,6.25
2023-11-24T10:41:04.045Z,6.21
2023-11-24T10:42:00.965Z,6.21
2023-11-24T10:43:01.006Z,6.18
2023-11-24T10:44:00.930Z,6.14
2023-11-24T10:45:00.985Z,6.13
2023-11-24T10:46:00.979Z,6.10
2023-11-24T10:47:00.991Z,6.04
2023-11-24T10:48:00.960Z,6.01
2023-11-24T10:49:00.974Z,6.01
2023-11-24T10:50:00.880Z,6.04
2023-11-24T10:51:00.874Z,6.03
2023-11-24T10:52:01.112Z,6.07
2023-11-24T10:53:00.851Z,6.04
2023-11-24T10:54:00.828Z,6.03
2023-11-24T10:55:00.888Z,6.04
2023-11-24T10:56:00.794Z,6.07
2023-11-24T10:57:00.840Z,6.06
2023-11-24T10:58:00.826Z,6.07
2023-11-24T10:59:00.798Z,6.04
2023-11-24T11:00:00.788Z,6.03
2023-11-24T11:01:00.816Z,5.98
2023-11-24T11:02:01.572Z,5.93
2023-11-24T11:03:00.813Z,5.91
2023-11-24T11:04:00.762Z,5.91
2023-11-24T11:05:00.740Z,5.89
2023-11-24T11:06:00.704Z,5.88
2023-11-24T11:07:00.766Z,5.91
2023-11-24T11:08:00.679Z,5.93
2023-11-24T11:09:00.717Z,5.98
2023-11-24T11:10:00.724Z,6.07
2023-11-24T11:11:00.709Z,6.10
2023-11-24T11:12:00.635Z,6.16
2023-11-24T11:13:00.671Z,6.22
2023-11-24T11:14:00.613Z,6.26
2023-11-24T11:15:00.779Z,6.28
2023-11-24T11:16:02.586Z,6.29
2023-11-24T11:17:02.632Z,6.30
2023-11-24T11:18:00.660Z,6.30
2023-11-24T11:19:00.600Z,6.29
2023-11-24T11:20:00.655Z,6.33
2023-11-24T11:21:00.548Z,6.33
2023-11-24T11:22:00.541Z,6.36
2023-11-24T11:23:00.581Z,6.38
2023-11-24T11:24:00.487Z,6.33
2023-11-24T11:25:00.520Z,6.36
2023-11-24T11:26:00.469Z,6.35
2023-11-24T11:27:00.477Z,6.33
2023-11-24T11:28:00.504Z,6.30
2023-11-24T11:29:00.457Z,6.21
2023-11-24T11:30:00.494Z,6.16
2023-11-24T11:31:00.599Z,6.11
2023-11-24T11:32:00.437Z,6.18
2023-11-24T11:33:00.475Z,6.19
2023-11-24T11:34:00.398Z,6.19
2023-11-24T11:35:00.381Z,6.19
2023-11-24T11:36:00.458Z,6.18
2023-11-24T11:37:00.695Z,6.14
2023-11-24T11:38:00.622Z,6.03
2023-11-24T11:39:00.635Z,5.95
2023-11-24T11:40:00.734Z,5.95
2023-11-24T11:41:00.674Z,5.93
2023-11-24T11:42:00.303Z,5.95
2023-11-24T11:43:02.381Z,5.98
2023-11-24T11:44:00.287Z,5.96
2023-11-24T11:45:00.292Z,5.95
2023-11-24T11:46:00.284Z,5.96
2023-11-24T11:47:00.409Z,5.92
2023-11-24T11:48:00.265Z,5.93
2023-11-24T11:49:00.307Z,5.92
2023-11-24T11:50:00.312Z,5.91
2023-11-24T11:51:00.314Z,5.93
2023-11-24T11:52:00.300Z,5.98
2023-11-24T11:53:00.326Z,5.96
2023-11-24T11:54:00.169Z,5.95
2023-11-24T11:55:00.238Z,5.98
2023-11-24T11:56:00.172Z,6.03
2023-11-24T11:57:00.320Z,6.07
2023-11-24T11:58:02.216Z,6.11
2023-11-24T11:59:02.087Z,6.09
2023-11-24T12:00:00.137Z,6.13
2023-11-24T12:01:00.249Z,6.01
2023-11-24T12:02:00.119Z,5.92
2023-11-24T12:03:00.491Z,5.89
2023-11-24T12:04:00.359Z,5.88
2023-11-24T12:05:00.142Z,5.89
2023-11-24T12:06:00.056Z,5.92
2023-11-24T12:07:00.085Z,5.98
2023-11-24T12:08:00.003Z,6.00
2023-11-24T12:09:01.988Z,6.00
2023-11-24T12:10:00.010Z,5.93
2023-11-24T12:11:00.023Z,5.93
2023-11-24T12:12:01.903Z,5.92
2023-11-24T12:13:00.242Z,5.93
2023-11-24T12:14:01.914Z,5.92
2023-11-24T12:15:01.927Z,5.89
2023-11-24T12:15:59.999Z,5.95
2023-11-24T12:17:02.044Z,5.96
2023-11-24T12:17:59.952Z,6.00
2023-11-24T12:19:00.016Z,6.03
2023-11-24T12:19:59.907Z,6.06
2023-11-24T12:20:59.888Z,6.06
2023-11-24T12:21:59.884Z,6.03
2023-11-24T12:23:01.827Z,6.04
2023-11-24T12:24:12.157Z,5.96
2023-11-24T12:25:00.936Z,5.93
2023-11-24T12:26:01.799Z,5.93
2023-11-24T12:27:01.779Z,5.93
2023-11-24T12:28:01.825Z,5.92
2023-11-24T12:28:59.793Z,5.92
2023-11-24T12:29:59.765Z,5.85
2023-11-24T12:30:59.839Z,5.83
2023-11-24T12:31:59.865Z,5.83
2023-11-24T12:33:00.595Z,5.78
2023-11-24T12:34:01.740Z,5.83
2023-11-24T12:34:59.783Z,5.85
2023-11-24T12:35:59.702Z,5.86
2023-11-24T12:37:01.733Z,5.91
2023-11-24T12:37:59.684Z,5.89
2023-11-24T12:38:59.778Z,5.85
2023-11-24T12:40:01.640Z,5.86
2023-11-24T12:41:01.650Z,5.88
2023-11-24T12:42:01.619Z,5.89
2023-11-24T12:43:01.654Z,5.89
2023-11-24T12:44:01.590Z,5.91
2023-11-24T12:45:01.619Z,5.95
2023-11-24T12:45:59.621Z,5.98
2023-11-24T12:46:59.655Z,6.03
2023-11-24T12:47:59.791Z,6.09
2023-11-24T12:49:01.612Z,6.03
2023-11-24T12:50:01.500Z,6.00
2023-11-24T12:50:59.808Z,6.00
2023-11-24T12:51:59.812Z,6.03
2023-11-24T12:52:59.615Z,6.09
2023-11-24T12:54:01.482Z,6.10
2023-11-24T12:54:59.579Z,6.18
2023-11-24T12:55:59.518Z,6.19
2023-11-24T12:56:59.816Z,6.19
2023-11-24T12:57:59.802Z,6.21
2023-11-24T12:58:59.600Z,6.19
2023-11-24T12:59:59.472Z,6.19
2023-11-24T13:00:59.503Z,6.22
2023-11-24T13:01:59.484Z,6.21
2023-11-24T13:02:59.457Z,6.18
2023-11-24T13:03:59.469Z,6.14
2023-11-24T13:04:59.445Z,6.13
2023-11-24T13:05:59.387Z,6.13
2023-11-24T13:06:59.474Z,6.11
2023-11-24T13:07:59.367Z,6.10
2023-11-24T13:08:59.381Z,6.11
2023-11-24T13:10:01.396Z,6.18
2023-11-24T13:10:59.338Z,6.18
2023-11-24T13:12:07.249Z,6.14
2023-11-24T13:13:00.363Z,6.07
2023-11-24T13:13:59.391Z,6.06
2023-11-24T13:14:59.336Z,6.06
2023-11-24T13:15:59.323Z,6.09
2023-11-24T13:16:59.359Z,6.09
2023-11-24T13:17:59.266Z,6.10
2023-11-24T13:18:59.297Z,6.14